Time;durP1;ratioP1;P1;durP2;ratioP2;P2;SDS_P1;SDS_P2;PMS_P1;PMS_P2;Temp;Humidity;BMP_temperature;BMP_pressure;BME280_temperature;BME280_humidity;BME280_pressure;Samples;Min_cycle;Max_cycle;Signal;HPM_P1;HPM_P2
2024/01/26 00:01:26;;;;;;;38.90;24.00;;;;;;;;;;5074512;28;20281;-67
2024/01/26 00:03:52;;;;;;;44.87;23.83;;;;;;;;;;5075146;28;20632;-67
2024/01/26 00:06:18;;;;;;;40.97;24.07;;;;;;;;;;5074187;28;20174;-67
2024/01/26 00:08:44;;;;;;;39.90;23.77;;;;;;;;;;5056665;28;20173;-68
2024/01/26 00:11:16;;;;;;;43.37;23.03;;;;;;;;;;5075034;28;20205;-66
2024/01/26 00:13:42;;;;;;;39.50;24.40;;;;;;;;;;5074598;28;20251;-68
2024/01/26 00:16:08;;;;;;;39.07;24.53;;;;;;;;;;5074493;28;20596;-67
2024/01/26 00:18:35;;;;;;;44.27;24.40;;;;;;;;;;5074176;28;20174;-66
2024/01/26 00:21:01;;;;;;;39.20;23.87;;;;;;;;;;5073849;28;20585;-67
2024/01/26 00:23:27;;;;;;;45.77;24.43;;;;;;;;;;5074032;28;20178;-68
2024/01/26 00:25:53;;;;;;;41.00;22.87;;;;;;;;;;5074489;28;20253;-67
2024/01/26 00:28:19;;;;;;;37.30;22.77;;;;;;;;;;5074244;28;20658;-67
2024/01/26 00:30:45;;;;;;;36.90;23.60;;;;;;;;;;5073848;28;20568;-68
2024/01/26 00:33:11;;;;;;;40.33;23.17;;;;;;;;;;5073989;28;20174;-66
2024/01/26 00:35:36;;;;;;;36.47;24.17;;;;;;;;;;5074094;28;20169;-66
2024/01/26 00:38:02;;;;;;;38.77;23.97;;;;;;;;;;5074031;28;20589;-67
2024/01/26 00:40:28;;;;;;;38.20;24.57;;;;;;;;;;5073666;28;20659;-66
2024/01/26 00:42:54;;;;;;;36.90;22.80;;;;;;;;;;5073985;28;20228;-66
2024/01/26 00:45:20;;;;;;;42.10;23.90;;;;;;;;;;5073925;28;20180;-67
2024/01/26 00:47:46;;;;;;;42.47;24.90;;;;;;;;;;5073700;28;20193;-67
2024/01/26 00:50:12;;;;;;;41.03;23.50;;;;;;;;;;5055490;28;20196;-67
2024/01/26 00:52:38;;;;;;;43.33;24.10;;;;;;;;;;5074072;28;20174;-68
2024/01/26 00:55:04;;;;;;;37.97;22.23;;;;;;;;;;5055765;28;20271;-67
2024/01/26 00:57:30;;;;;;;38.20;23.30;;;;;;;;;;5073617;28;20668;-66
2024/01/26 00:59:56;;;;;;;38.20;23.77;;;;;;;;;;5073964;28;20204;-67
2024/01/26 01:02:23;;;;;;;38.60;23.30;;;;;;;;;;5055594;28;20241;-67
2024/01/26 01:04:49;;;;;;;35.67;22.30;;;;;;;;;;5073238;28;20260;-67
2024/01/26 01:07:15;;;;;;;36.07;22.87;;;;;;;;;;5055475;28;20213;-66
2024/01/26 01:09:41;;;;;;;41.40;23.07;;;;;;;;;;5073289;28;20640;-66
2024/01/26 01:12:07;;;;;;;40.90;24.13;;;;;;;;;;5055321;28;20304;-66
2024/01/26 01:14:36;;;;;;;38.97;23.10;;;;;;;;;;5055366;28;20273;-67
2024/01/26 01:17:02;;;;;;;39.80;23.93;;;;;;;;;;5054973;28;20182;-67
2024/01/26 01:19:28;;;;;;;43.73;23.40;;;;;;;;;;5072578;28;20225;-65
2024/01/26 01:21:54;;;;;;;38.13;22.57;;;;;;;;;;5055361;28;20197;-67
2024/01/26 01:24:20;;;;;;;37.63;23.33;;;;;;;;;;5073335;28;20272;-66
2024/01/26 01:26:46;;;;;;;35.53;22.27;;;;;;;;;;5055042;28;20178;-66
2024/01/26 01:29:12;;;;;;;40.53;24.30;;;;;;;;;;5072832;28;20289;-67
2024/01/26 01:31:38;;;;;;;44.10;23.73;;;;;;;;;;5073114;28;20185;-66
2024/01/26 01:34:05;;;;;;;37.50;24.13;;;;;;;;;;5072776;28;20181;-66
2024/01/26 01:36:31;;;;;;;36.93;22.53;;;;;;;;;;5072945;28;20178;-65
2024/01/26 01:38:57;;;;;;;32.90;21.40;;;;;;;;;;5072725;28;20346;-68
2024/01/26 01:41:22;;;;;;;46.27;24.53;;;;;;;;;;5073149;28;20247;-67
2024/01/26 01:43:55;;;;;;;40.50;22.87;;;;;;;;;;5074668;28;20177;-68
2024/01/26 01:46:21;;;;;;;38.23;22.50;;;;;;;;;;5060069;28;20178;-66
2024/01/26 01:48:48;;;;;;;38.93;24.37;;;;;;;;;;5078289;28;20654;-67
2024/01/26 01:51:15;;;;;;;38.07;23.33;;;;;;;;;;5078235;28;20189;-67
2024/01/26 01:53:41;;;;;;;37.60;22.67;;;;;;;;;;5073453;28;20181;-66
2024/01/26 01:56:11;;;;;;;39.60;22.43;;;;;;;;;;5072919;28;20189;-67
2024/01/26 01:58:38;;;;;;;39.50;23.50;;;;;;;;;;5073514;28;20182;-67
2024/01/26 02:01:04;;;;;;;37.07;22.50;;;;;;;;;;5054409;28;20739;-67
2024/01/26 02:03:30;;;;;;;41.97;23.83;;;;;;;;;;5072737;28;20225;-66
2024/01/26 02:05:56;;;;;;;36.53;23.00;;;;;;;;;;5073142;28;20550;-66
2024/01/26 02:08:22;;;;;;;35.63;22.47;;;;;;;;;;5072626;28;20177;-66
2024/01/26 02:10:48;;;;;;;46.27;24.07;;;;;;;;;;5072535;28;20204;-67
2024/01/26 02:13:14;;;;;;;42.93;24.60;;;;;;;;;;5072293;28;20205;-66
2024/01/26 02:15:40;;;;;;;38.37;22.93;;;;;;;;;;5072552;28;20188;-67
2024/01/26 02:18:06;;;;;;;38.50;22.03;;;;;;;;;;5072497;28;20246;-67
2024/01/26 02:20:32;;;;;;;36.97;22.13;;;;;;;;;;5072229;28;20209;-66
2024/01/26 02:22:58;;;;;;;38.73;23.83;;;;;;;;;;5072351;28;20570;-67
2024/01/26 02:25:24;;;;;;;37.90;23.40;;;;;;;;;;5072326;28;20170;-67
2024/01/26 02:27:53;;;;;;;37.90;22.00;;;;;;;;;;5072157;28;20204;-67
2024/01/26 02:30:19;;;;;;;33.97;22.37;;;;;;;;;;5057200;28;20244;-67
2024/01/26 02:32:45;;;;;;;35.23;21.47;;;;;;;;;;5076995;28;20658;-66
2024/01/26 02:35:11;;;;;;;32.07;20.60;;;;;;;;;;5076512;28;20589;-65
2024/01/26 02:37:37;;;;;;;34.03;22.40;;;;;;;;;;5076208;28;20177;-66
2024/01/26 02:40:03;;;;;;;40.23;22.30;;;;;;;;;;5057997;28;20246;-67
2024/01/26 02:42:29;;;;;;;38.07;22.73;;;;;;;;;;5076191;28;20266;-67
2024/01/26 02:44:55;;;;;;;34.80;22.37;;;;;;;;;;5058175;28;20660;-66
2024/01/26 02:47:21;;;;;;;34.37;21.97;;;;;;;;;;5076105;28;20178;-66
2024/01/26 02:49:47;;;;;;;33.13;21.80;;;;;;;;;;5076087;28;20224;-67
2024/01/26 02:52:13;;;;;;;34.70;21.90;;;;;;;;;;5076355;28;20185;-67
2024/01/26 02:54:39;;;;;;;36.63;21.80;;;;;;;;;;5057919;28;20186;-67
2024/01/26 02:57:05;;;;;;;35.90;21.20;;;;;;;;;;5075909;28;20636;-67
2024/01/26 02:59:31;;;;;;;30.40;20.90;;;;;;;;;;5075900;28;20225;-67
2024/01/26 03:01:57;;;;;;;33.17;19.90;;;;;;;;;;5076042;28;20606;-67
2024/01/26 03:04:22;;;;;;;33.70;20.93;;;;;;;;;;5075954;28;20174;-68
2024/01/26 03:06:50;;;;;;;34.47;21.63;;;;;;;;;;5075794;28;20247;-67
2024/01/26 03:09:17;;;;;;;34.03;20.33;;;;;;;;;;5076041;28;20201;-66
2024/01/26 03:11:43;;;;;;;33.00;20.37;;;;;;;;;;5057558;28;20608;-66
2024/01/26 03:14:09;;;;;;;30.03;19.47;;;;;;;;;;5075573;28;20261;-67
2024/01/26 03:16:36;;;;;;;31.43;18.80;;;;;;;;;;5075961;28;20178;-66
2024/01/26 03:19:02;;;;;;;29.90;19.10;;;;;;;;;;5075452;28;20182;-66
2024/01/26 03:21:28;;;;;;;28.47;17.70;;;;;;;;;;5075952;28;20193;-67
2024/01/26 03:23:54;;;;;;;25.70;17.43;;;;;;;;;;5075833;28;20743;-66
2024/01/26 03:26:20;;;;;;;26.17;16.43;;;;;;;;;;5075437;28;20205;-66
2024/01/26 03:28:47;;;;;;;28.17;16.20;;;;;;;;;;5057385;28;20201;-66
2024/01/26 03:31:13;;;;;;;24.67;16.30;;;;;;;;;;5075119;28;20181;-67
2024/01/26 03:33:40;;;;;;;23.03;15.43;;;;;;;;;;5075216;28;20201;-67
2024/01/26 03:36:07;;;;;;;25.43;15.53;;;;;;;;;;5075005;28;20180;-67
2024/01/26 03:38:33;;;;;;;24.20;15.77;;;;;;;;;;5075159;28;20261;-66
2024/01/26 03:40:59;;;;;;;20.57;15.50;;;;;;;;;;5073894;28;20671;-66
2024/01/26 03:43:25;;;;;;;24.43;14.77;;;;;;;;;;5075172;28;20188;-67
2024/01/26 03:45:51;;;;;;;21.27;14.80;;;;;;;;;;5075005;28;20295;-67
2024/01/26 03:48:17;;;;;;;19.43;14.30;;;;;;;;;;5074864;28;20186;-68
2024/01/26 03:50:43;;;;;;;20.33;13.27;;;;;;;;;;5074618;28;20201;-66
2024/01/26 03:53:09;;;;;;;18.20;13.03;;;;;;;;;;5075228;28;20577;-66
2024/01/26 03:55:36;;;;;;;21.33;13.97;;;;;;;;;;5074731;28;20694;-66
2024/01/26 03:58:02;;;;;;;20.27;13.67;;;;;;;;;;5074452;28;20209;-66
2024/01/26 04:00:28;;;;;;;20.37;13.00;;;;;;;;;;5074624;28;20202;-66
2024/01/26 04:02:54;;;;;;;19.70;12.73;;;;;;;;;;5074628;28;20205;-68
2024/01/26 04:05:20;;;;;;;21.30;14.00;;;;;;;;;;5074942;28;20283;-69
2024/01/26 04:07:46;;;;;;;24.67;13.43;;;;;;;;;;5074686;28;20202;-69
2024/01/26 04:10:11;;;;;;;22.23;15.23;;;;;;;;;;5056508;28;20280;-68
2024/01/26 04:12:37;;;;;;;22.13;14.67;;;;;;;;;;5074559;28;20599;-69
2024/01/26 04:15:03;;;;;;;22.30;16.27;;;;;;;;;;5074420;28;20659;-68
2024/01/26 04:17:29;;;;;;;19.83;14.67;;;;;;;;;;5074422;28;20174;-68
2024/01/26 04:19:55;;;;;;;21.67;15.77;;;;;;;;;;5074274;28;20221;-69
2024/01/26 04:22:21;;;;;;;23.47;15.30;;;;;;;;;;5074347;28;20277;-68
2024/01/26 04:24:47;;;;;;;24.80;15.73;;;;;;;;;;5074385;28;20617;-69
2024/01/26 04:27:13;;;;;;;23.43;16.60;;;;;;;;;;5074557;28;20224;-69
2024/01/26 04:29:39;;;;;;;21.70;15.43;;;;;;;;;;5074233;28;20189;-69
2024/01/26 04:32:05;;;;;;;17.47;13.23;;;;;;;;;;5074369;28;20182;-69
2024/01/26 04:34:31;;;;;;;22.37;15.30;;;;;;;;;;5074091;28;20181;-70
2024/01/26 04:36:57;;;;;;;18.13;13.97;;;;;;;;;;5074259;28;20652;-69
2024/01/26 04:39:23;;;;;;;21.13;14.97;;;;;;;;;;5074060;28;20289;-68
2024/01/26 04:41:49;;;;;;;18.27;13.97;;;;;;;;;;5056018;28;20244;-68
2024/01/26 04:44:15;;;;;;;18.70;12.30;;;;;;;;;;5073871;28;20178;-69
2024/01/26 04:46:41;;;;;;;18.30;12.80;;;;;;;;;;5073979;28;20181;-69
2024/01/26 04:49:07;;;;;;;17.63;12.67;;;;;;;;;;5073986;28;20192;-69
2024/01/26 04:51:33;;;;;;;16.60;11.93;;;;;;;;;;5073967;28;20277;-68
2024/01/26 04:53:59;;;;;;;16.23;11.40;;;;;;;;;;5073732;28;20211;-69
2024/01/26 04:56:25;;;;;;;17.97;11.73;;;;;;;;;;5074460;28;20178;-69
2024/01/26 04:58:51;;;;;;;14.03;10.97;;;;;;;;;;5074179;28;20205;-68
2024/01/26 05:01:17;;;;;;;16.67;11.33;;;;;;;;;;5073928;28;20282;-68
2024/01/26 05:03:43;;;;;;;12.33;9.50;;;;;;;;;;5073766;28;20236;-67
2024/01/26 05:06:09;;;;;;;12.73;10.07;;;;;;;;;;5055628;28;20185;-68
2024/01/26 05:08:35;;;;;;;11.90;9.53;;;;;;;;;;5073588;28;20177;-68
2024/01/26 05:11:01;;;;;;;12.43;9.67;;;;;;;;;;5073481;28;20197;-67
2024/01/26 05:13:27;;;;;;;11.67;9.07;;;;;;;;;;5073714;28;20662;-69
2024/01/26 05:15:52;;;;;;;9.97;8.53;;;;;;;;;;5073592;28;20170;-68
2024/01/26 05:18:18;;;;;;;12.67;8.70;;;;;;;;;;5073377;28;20601;-68
2024/01/26 05:20:44;;;;;;;10.07;8.30;;;;;;;;;;5098218;22;20236;-70
2024/01/26 05:23:10;;;;;;;11.73;8.20;;;;;;;;;;5073931;28;20213;-70
2024/01/26 05:25:36;;;;;;;10.70;8.30;;;;;;;;;;5056134;28;20279;-70
2024/01/26 05:28:02;;;;;;;8.87;6.87;;;;;;;;;;5055865;28;20223;-70
2024/01/26 05:30:28;;;;;;;7.77;6.20;;;;;;;;;;5073837;28;20265;-70
2024/01/26 05:32:54;;;;;;;8.80;6.47;;;;;;;;;;5074267;28;20635;-70
2024/01/26 05:35:21;;;;;;;6.90;6.20;;;;;;;;;;5075964;28;20178;-70
2024/01/26 05:37:47;;;;;;;8.47;6.60;;;;;;;;;;5057125;28;20221;-70
2024/01/26 05:40:13;;;;;;;6.93;5.60;;;;;;;;;;5056239;28;20255;-70
2024/01/26 05:42:39;;;;;;;7.53;5.93;;;;;;;;;;5073842;28;20295;-70
2024/01/26 05:45:06;;;;;;;9.43;5.60;;;;;;;;;;5073733;28;20177;-70
2024/01/26 05:47:32;;;;;;;6.00;5.40;;;;;;;;;;5073687;28;20175;-70
2024/01/26 05:49:58;;;;;;;6.30;4.80;;;;;;;;;;5055536;28;20230;-70
2024/01/26 05:52:23;;;;;;;7.77;5.47;;;;;;;;;;5073453;28;20639;-70
2024/01/26 05:54:49;;;;;;;5.97;5.00;;;;;;;;;;5073781;28;20181;-70
2024/01/26 05:57:16;;;;;;;5.13;4.60;;;;;;;;;;5073356;28;20667;-70
2024/01/26 05:59:42;;;;;;;5.53;4.87;;;;;;;;;;5055501;28;20276;-70
2024/01/26 06:02:08;;;;;;;5.93;4.40;;;;;;;;;;5073059;28;20673;-70
2024/01/26 06:04:34;;;;;;;5.47;4.23;;;;;;;;;;5073065;28;20200;-71
2024/01/26 06:07:01;;;;;;;5.43;4.50;;;;;;;;;;5055476;28;20178;-70
2024/01/26 06:09:27;;;;;;;6.03;4.20;;;;;;;;;;5073016;28;20180;-70
2024/01/26 06:11:53;;;;;;;6.97;4.67;;;;;;;;;;5055087;28;20210;-70
2024/01/26 06:14:18;;;;;;;4.83;3.93;;;;;;;;;;5073416;28;20173;-70
2024/01/26 06:16:48;;;;;;;6.00;4.63;;;;;;;;;;5073593;28;20232;-71
2024/01/26 06:19:14;;;;;;;5.10;4.60;;;;;;;;;;5074257;28;20178;-71
2024/01/26 06:21:40;;;;;;;6.33;5.10;;;;;;;;;;5073617;28;20214;-72
2024/01/26 06:24:06;;;;;;;5.87;5.27;;;;;;;;;;5074915;28;20181;-70
2024/01/26 06:26:32;;;;;;;5.27;4.77;;;;;;;;;;5074519;28;20633;-71
2024/01/26 06:28:58;;;;;;;6.53;4.60;;;;;;;;;;5079505;28;20185;-73
2024/01/26 06:31:25;;;;;;;6.73;4.17;;;;;;;;;;5082955;28;20200;-71
2024/01/26 06:33:51;;;;;;;5.47;4.90;;;;;;;;;;5063554;28;20196;-71
2024/01/26 06:36:17;;;;;;;4.90;4.40;;;;;;;;;;5060619;28;20246;-71
2024/01/26 06:38:43;;;;;;;8.00;4.90;;;;;;;;;;5073133;28;20178;-70
2024/01/26 06:41:09;;;;;;;6.63;4.50;;;;;;;;;;5072628;28;20201;-70
2024/01/26 06:43:35;;;;;;;7.20;5.03;;;;;;;;;;5054991;28;20185;-70
2024/01/26 06:46:01;;;;;;;5.80;4.50;;;;;;;;;;5055029;28;20178;-70
2024/01/26 06:48:27;;;;;;;7.23;5.50;;;;;;;;;;5073191;28;20576;-71
2024/01/26 06:50:53;;;;;;;7.23;4.93;;;;;;;;;;5080023;28;20174;-71
2024/01/26 06:53:20;;;;;;;6.40;4.77;;;;;;;;;;5073846;28;20558;-70
2024/01/26 06:55:46;;;;;;;6.77;4.53;;;;;;;;;;5073196;28;20189;-70
2024/01/26 06:58:12;;;;;;;5.17;4.63;;;;;;;;;;5072972;28;20265;-71
2024/01/26 07:00:38;;;;;;;5.67;4.60;;;;;;;;;;5072885;28;20226;-71
2024/01/26 07:03:04;;;;;;;8.67;5.07;;;;;;;;;;5072663;28;20217;-70
2024/01/26 07:05:30;;;;;;;6.63;5.13;;;;;;;;;;5072552;28;20586;-71
2024/01/26 07:07:56;;;;;;;7.73;5.53;;;;;;;;;;5072511;28;20174;-70
2024/01/26 07:10:22;;;;;;;5.13;4.63;;;;;;;;;;5072618;28;20205;-70
2024/01/26 07:12:48;;;;;;;7.33;4.80;;;;;;;;;;5072853;28;20225;-71
2024/01/26 07:15:14;;;;;;;6.03;4.73;;;;;;;;;;5073308;28;20639;-70
2024/01/26 07:17:40;;;;;;;8.63;5.30;;;;;;;;;;5076345;28;20173;-70
2024/01/26 07:20:07;;;;;;;5.53;4.83;;;;;;;;;;5057961;28;20544;-71
2024/01/26 07:22:33;;;;;;;6.67;5.43;;;;;;;;;;5058359;28;20267;-70
2024/01/26 07:24:59;;;;;;;8.00;4.90;;;;;;;;;;5076465;28;20559;-71
2024/01/26 07:27:25;;;;;;;9.93;5.70;;;;;;;;;;5076576;28;20166;-71
2024/01/26 07:29:51;;;;;;;6.37;5.00;;;;;;;;;;5076201;28;20181;-71
2024/01/26 07:32:17;;;;;;;10.00;6.27;;;;;;;;;;5076787;28;20569;-71
2024/01/26 07:34:43;;;;;;;7.87;6.90;;;;;;;;;;5058711;28;20253;-71
2024/01/26 07:37:09;;;;;;;9.83;7.47;;;;;;;;;;5076248;28;20174;-71
2024/01/26 07:39:35;;;;;;;9.10;7.50;;;;;;;;;;5076436;28;20181;-70
2024/01/26 07:42:01;;;;;;;10.97;8.20;;;;;;;;;;5076705;28;20778;-70
2024/01/26 07:44:26;;;;;;;11.30;8.20;;;;;;;;;;5076357;28;20174;-70
2024/01/26 07:46:52;;;;;;;12.77;7.60;;;;;;;;;;5075661;28;20174;-70
2024/01/26 07:49:18;;;;;;;9.40;7.63;;;;;;;;;;5075762;28;20182;-69
2024/01/26 07:51:44;;;;;;;11.83;7.67;;;;;;;;;;5076000;28;20201;-70
2024/01/26 07:54:10;;;;;;;9.23;7.43;;;;;;;;;;5076489;28;20182;-70
2024/01/26 07:56:36;;;;;;;9.07;6.90;;;;;;;;;;5076107;28;20263;-70
2024/01/26 07:59:02;;;;;;;10.40;7.63;;;;;;;;;;5075793;28;20182;-70
2024/01/26 08:01:28;;;;;;;9.20;7.43;;;;;;;;;;5076338;28;20554;-70
2024/01/26 08:03:54;;;;;;;10.57;7.73;;;;;;;;;;5057518;28;20553;-70
2024/01/26 08:06:20;;;;;;;12.17;8.77;;;;;;;;;;5057640;28;20564;-70
2024/01/26 08:08:46;;;;;;;11.90;8.33;;;;;;;;;;5057709;28;20186;-70
2024/01/26 08:11:12;;;;;;;10.57;8.00;;;;;;;;;;5057315;28;20201;-70
2024/01/26 08:13:38;;;;;;;11.60;8.70;;;;;;;;;;5076057;28;20206;-69
2024/01/26 08:16:04;;;;;;;9.77;8.47;;;;;;;;;;5057367;28;20181;-69
2024/01/26 08:18:30;;;;;;;11.57;7.97;;;;;;;;;;5058107;28;20178;-69
2024/01/26 08:20:56;;;;;;;10.73;9.47;;;;;;;;;;5075018;28;20240;-70
2024/01/26 08:23:22;;;;;;;10.27;8.27;;;;;;;;;;5077961;28;20178;-70
2024/01/26 08:25:48;;;;;;;9.37;7.50;;;;;;;;;;5078332;28;20169;-70
2024/01/26 08:28:14;;;;;;;13.00;8.03;;;;;;;;;;5058767;28;20213;-71
2024/01/26 08:30:42;;;;;;;11.83;7.97;;;;;;;;;;5057153;28;20202;-70
2024/01/26 08:33:08;;;;;;;14.17;7.67;;;;;;;;;;5057053;28;20185;-71
2024/01/26 08:35:34;;;;;;;9.47;6.93;;;;;;;;;;5075463;28;20177;-71
2024/01/26 08:38:00;;;;;;;10.07;6.80;;;;;;;;;;5074909;28;20201;-71
2024/01/26 08:40:28;;;;;;;11.77;7.60;;;;;;;;;;5075236;28;20197;-71
2024/01/26 08:42:53;;;;;;;12.17;8.30;;;;;;;;;;5057259;28;20251;-71
2024/01/26 08:45:19;;;;;;;10.13;9.07;;;;;;;;;;5057373;28;20186;-71
2024/01/26 08:47:45;;;;;;;12.70;9.60;;;;;;;;;;5075285;28;20178;-71
2024/01/26 08:50:11;;;;;;;9.33;7.47;;;;;;;;;;5074966;28;20623;-71
2024/01/26 08:52:37;;;;;;;15.10;8.77;;;;;;;;;;5075141;28;20174;-71
2024/01/26 08:55:04;;;;;;;13.83;10.87;;;;;;;;;;5056833;28;20272;-71
2024/01/26 08:57:30;;;;;;;13.63;9.17;;;;;;;;;;5076308;28;20174;-71
2024/01/26 08:59:56;;;;;;;12.57;9.63;;;;;;;;;;5062530;28;20192;-71
2024/01/26 09:02:22;;;;;;;15.63;11.80;;;;;;;;;;5075159;28;20205;-70
2024/01/26 09:04:47;;;;;;;17.60;12.27;;;;;;;;;;5075044;28;20174;-71
2024/01/26 09:07:17;;;;;;;13.37;9.17;;;;;;;;;;5074440;28;20636;-71
2024/01/26 09:09:43;;;;;;;12.80;9.80;;;;;;;;;;5056755;28;20185;-70
2024/01/26 09:12:09;;;;;;;11.77;10.03;;;;;;;;;;5056634;28;20208;-71
2024/01/26 09:14:35;;;;;;;15.83;12.93;;;;;;;;;;5074488;28;20182;-71
2024/01/26 09:17:01;;;;;;;14.07;10.10;;;;;;;;;;5075011;28;20178;-71
2024/01/26 09:19:27;;;;;;;11.87;9.67;;;;;;;;;;5056996;28;20562;-71
2024/01/26 09:21:53;;;;;;;18.63;15.83;;;;;;;;;;5074383;28;20220;-70
2024/01/26 09:24:19;;;;;;;13.27;10.23;;;;;;;;;;5074560;28;20174;-71
2024/01/26 09:26:45;;;;;;;12.03;9.40;;;;;;;;;;5079616;28;20686;-70
2024/01/26 09:29:11;;;;;;;12.40;9.47;;;;;;;;;;5077381;28;20235;-70
2024/01/26 09:31:37;;;;;;;51.60;30.20;;;;;;;;;;5061541;28;20251;-71
2024/01/26 09:34:04;;;;;;;14.70;9.33;;;;;;;;;;5082500;28;20182;-72
2024/01/26 09:36:30;;;;;;;13.63;9.30;;;;;;;;;;5065675;28;20227;-72
2024/01/26 09:38:56;;;;;;;18.50;13.10;;;;;;;;;;5063082;28;20232;-71
2024/01/26 09:41:22;;;;;;;9.87;8.60;;;;;;;;;;5081577;28;20213;-71
2024/01/26 09:43:48;;;;;;;24.73;17.17;;;;;;;;;;5062186;28;20174;-71
2024/01/26 09:46:14;;;;;;;29.20;17.53;;;;;;;;;;5078547;28;20360;-72
2024/01/26 09:48:40;;;;;;;30.53;19.47;;;;;;;;;;5073938;28;20178;-73
2024/01/26 09:51:06;;;;;;;12.43;8.37;;;;;;;;;;5073572;28;20626;-72
2024/01/26 09:53:33;;;;;;;11.03;8.63;;;;;;;;;;5073751;28;20308;-71
2024/01/26 09:56:00;;;;;;;18.03;15.10;;;;;;;;;;5074103;28;20208;-71
2024/01/26 09:58:26;;;;;;;11.13;9.03;;;;;;;;;;5073615;28;20166;-71
2024/01/26 10:00:55;;;;;;;11.60;9.40;;;;;;;;;;5055472;28;20244;-71
2024/01/26 10:03:23;;;;;;;12.87;8.40;;;;;;;;;;5074087;28;20201;-71
2024/01/26 10:05:49;;;;;;;11.07;8.80;;;;;;;;;;5073839;28;20178;-71
2024/01/26 10:08:16;;;;;;;12.37;9.57;;;;;;;;;;5073897;28;20222;-71
2024/01/26 10:10:42;;;;;;;9.83;8.10;;;;;;;;;;5073810;28;20197;-70
2024/01/26 10:13:08;;;;;;;10.93;8.40;;;;;;;;;;5055639;28;20181;-69
2024/01/26 10:15:34;;;;;;;10.50;7.70;;;;;;;;;;5073831;28;20177;-70
2024/01/26 10:18:01;;;;;;;8.97;7.77;;;;;;;;;;5073866;28;20189;-72
2024/01/26 10:20:27;;;;;;;29.07;22.37;;;;;;;;;;5078328;28;20206;-70
2024/01/26 10:22:53;;;;;;;15.43;11.17;;;;;;;;;;5054913;28;20262;-70
2024/01/26 10:25:19;;;;;;;16.80;13.27;;;;;;;;;;5073321;28;20249;-69
2024/01/26 10:27:45;;;;;;;11.37;8.20;;;;;;;;;;5073184;28;20209;-69
2024/01/26 10:30:11;;;;;;;7.83;7.03;;;;;;;;;;5073023;28;20194;-69
2024/01/26 10:32:38;;;;;;;5.23;4.73;;;;;;;;;;5073249;28;20181;-69
2024/01/26 10:35:05;;;;;;;6.00;4.20;;;;;;;;;;5072997;28;20173;-69
2024/01/26 10:37:31;;;;;;;5.40;3.87;;;;;;;;;;5073086;28;20244;-70
2024/01/26 10:39:58;;;;;;;4.43;3.70;;;;;;;;;;5055245;28;20196;-70
2024/01/26 10:42:26;;;;;;;5.57;3.27;;;;;;;;;;5073646;28;20213;-70
2024/01/26 10:44:52;;;;;;;4.73;2.70;;;;;;;;;;5073393;28;20177;-70
2024/01/26 10:47:18;;;;;;;6.50;4.00;;;;;;;;;;5073412;28;20174;-70
2024/01/26 10:49:49;;;;;;;5.20;1.97;;;;;;;;;;5073756;28;20261;-69
2024/01/26 10:52:19;;;;;;;8.40;2.60;;;;;;;;;;5077968;28;20531;-71
2024/01/26 10:54:48;;;;;;;5.07;2.17;;;;;;;;;;5059652;28;20600;-71
2024/01/26 10:57:14;;;;;;;12.33;4.40;;;;;;;;;;5077792;28;20189;-71
2024/01/26 10:59:41;;;;;;;10.90;4.43;;;;;;;;;;5059684;28;20208;-71
2024/01/26 11:02:09;;;;;;;6.63;2.67;;;;;;;;;;5059370;28;20213;-72
2024/01/26 11:04:34;;;;;;;7.43;2.93;;;;;;;;;;5077762;28;20170;-70
2024/01/26 11:07:01;;;;;;;9.47;3.90;;;;;;;;;;5077699;28;20332;-71
2024/01/26 11:09:32;;;;;;;9.13;3.33;;;;;;;;;;5059348;28;20178;-71
2024/01/26 11:11:58;;;;;;;6.03;2.60;;;;;;;;;;5060668;28;20201;-70
2024/01/26 11:14:27;;;;;;;9.60;3.10;;;;;;;;;;5079412;28;20174;-71
2024/01/26 11:16:53;;;;;;;8.87;3.67;;;;;;;;;;5071517;28;20182;-70
2024/01/26 11:19:23;;;;;;;9.37;3.70;;;;;;;;;;5069511;28;20184;-72
2024/01/26 11:21:49;;;;;;;16.00;3.37;;;;;;;;;;5078415;28;20213;-71
2024/01/26 11:24:17;;;;;;;11.20;3.00;;;;;;;;;;5102101;22;20668;-68
2024/01/26 11:26:43;;;;;;;8.67;4.43;;;;;;;;;;5058166;28;20181;-69
2024/01/26 11:29:12;;;;;;;6.03;2.10;;;;;;;;;;5075791;28;20185;-67
2024/01/26 11:31:42;;;;;;;6.33;2.53;;;;;;;;;;5076727;28;20584;-67
2024/01/26 11:34:18;;;;;;;4.90;2.10;;;;;;;;;;5076588;28;20194;-68
2024/01/26 11:36:44;;;;;;;8.70;2.13;;;;;;;;;;5076842;28;20644;-71
2024/01/26 11:39:13;;;;;;;5.27;2.30;;;;;;;;;;5057760;28;20206;-68
2024/01/26 11:41:42;;;;;;;8.23;2.10;;;;;;;;;;5075701;28;20584;-68
2024/01/26 11:44:12;;;;;;;5.40;1.90;;;;;;;;;;5075836;28;20656;-69
2024/01/26 11:46:40;;;;;;;2.10;1.50;;;;;;;;;;5077154;28;20182;-69
2024/01/26 11:49:06;;;;;;;4.30;1.77;;;;;;;;;;5058477;28;20177;-70
2024/01/26 11:51:32;;;;;;;8.20;2.23;;;;;;;;;;5057848;28;20185;-68
2024/01/26 11:53:58;;;;;;;2.93;1.40;;;;;;;;;;5057817;28;20198;-70
2024/01/26 11:56:24;;;;;;;8.93;1.80;;;;;;;;;;5076154;28;20182;-70
2024/01/26 11:58:50;;;;;;;4.67;1.70;;;;;;;;;;5075995;28;20185;-69
2024/01/26 12:01:16;;;;;;;3.57;1.60;;;;;;;;;;5075656;28;20205;-68
2024/01/26 12:03:42;;;;;;;2.83;1.80;;;;;;;;;;5057721;28;20304;-68
2024/01/26 12:06:08;;;;;;;7.23;1.80;;;;;;;;;;5057886;28;20178;-71
2024/01/26 12:08:34;;;;;;;5.40;1.60;;;;;;;;;;5057472;28;20184;-68
2024/01/26 12:11:00;;;;;;;2.47;1.37;;;;;;;;;;5075607;28;20177;-68
2024/01/26 12:13:27;;;;;;;3.73;1.43;;;;;;;;;;5058180;28;20212;-70
2024/01/26 12:15:53;;;;;;;4.17;1.70;;;;;;;;;;5075694;28;20174;-69
2024/01/26 12:18:19;;;;;;;4.93;1.23;;;;;;;;;;5075345;28;20178;-70
2024/01/26 12:20:48;;;;;;;6.03;1.70;;;;;;;;;;5057793;28;20631;-69
2024/01/26 12:23:20;;;;;;;6.10;1.70;;;;;;;;;;5074940;28;20240;-69
2024/01/26 12:25:50;;;;;;;3.17;1.63;;;;;;;;;;5056969;28;20227;-70
2024/01/26 12:28:16;;;;;;;10.13;2.20;;;;;;;;;;5075425;28;20557;-70
2024/01/26 12:30:45;;;;;;;6.20;1.80;;;;;;;;;;5074801;28;20173;-70
2024/01/26 12:33:11;;;;;;;6.17;1.70;;;;;;;;;;5074726;28;20247;-65
2024/01/26 12:35:40;;;;;;;3.13;1.57;;;;;;;;;;5057047;28;20186;-69
2024/01/26 12:38:07;;;;;;;4.93;2.00;;;;;;;;;;5074633;28;20185;-68
2024/01/26 12:40:33;;;;;;;4.90;1.97;;;;;;;;;;5056409;28;20204;-67
2024/01/26 12:43:02;;;;;;;6.83;2.30;;;;;;;;;;5074108;28;20214;-69
2024/01/26 12:45:29;;;;;;;6.53;2.00;;;;;;;;;;5075170;28;20170;-69
2024/01/26 12:47:55;;;;;;;4.83;1.70;;;;;;;;;;5056476;28;20232;-69
2024/01/26 12:50:21;;;;;;;6.87;2.40;;;;;;;;;;5074563;28;20174;-68
2024/01/26 12:52:48;;;;;;;2.83;1.60;;;;;;;;;;5056268;28;20198;-69
2024/01/26 12:55:14;;;;;;;10.57;2.50;;;;;;;;;;5074343;28;20213;-69
2024/01/26 12:57:40;;;;;;;5.37;1.90;;;;;;;;;;5074122;28;20263;-69
2024/01/26 13:00:06;;;;;;;7.53;1.93;;;;;;;;;;5074078;28;20173;-69
2024/01/26 13:02:35;;;;;;;9.17;2.43;;;;;;;;;;5055828;28;20206;-64
2024/01/26 13:05:01;;;;;;;5.80;1.80;;;;;;;;;;5074121;28;20549;-68
2024/01/26 13:07:30;;;;;;;7.33;2.03;;;;;;;;;;5056345;28;20182;-67
2024/01/26 13:09:56;;;;;;;9.83;2.83;;;;;;;;;;5056059;28;20616;-64
2024/01/26 13:12:22;;;;;;;13.43;3.13;;;;;;;;;;5074147;28;20629;-67
2024/01/26 13:14:48;;;;;;;8.33;3.50;;;;;;;;;;5073474;28;20213;-67
2024/01/26 13:17:14;;;;;;;9.27;2.30;;;;;;;;;;5073629;28;20180;-68
2024/01/26 13:19:40;;;;;;;7.03;2.27;;;;;;;;;;5073461;28;20186;-68
2024/01/26 13:22:06;;;;;;;10.37;2.07;;;;;;;;;;5073363;28;20213;-68
2024/01/26 13:24:34;;;;;;;8.27;2.13;;;;;;;;;;5073557;28;20210;-68
2024/01/26 13:27:00;;;;;;;6.07;2.37;;;;;;;;;;5073975;28;20222;-68
2024/01/26 13:29:26;;;;;;;5.70;1.70;;;;;;;;;;5073592;28;20257;-68
2024/01/26 13:31:52;;;;;;;3.77;1.60;;;;;;;;;;5073505;28;20663;-68
2024/01/26 13:34:18;;;;;;;6.87;2.37;;;;;;;;;;5073677;28;20690;-67
2024/01/26 13:36:44;;;;;;;5.37;1.83;;;;;;;;;;5074011;28;20220;-67
2024/01/26 13:39:10;;;;;;;7.50;2.07;;;;;;;;;;5073808;28;20174;-69
2024/01/26 13:41:38;;;;;;;5.73;1.63;;;;;;;;;;5073522;28;20672;-65
2024/01/26 13:44:04;;;;;;;6.63;2.20;;;;;;;;;;5073299;28;20247;-66
2024/01/26 13:46:30;;;;;;;6.13;1.90;;;;;;;;;;5072991;28;20272;-66
2024/01/26 13:48:56;;;;;;;7.80;2.00;;;;;;;;;;5073054;28;20647;-65
2024/01/26 13:51:22;;;;;;;10.27;2.77;;;;;;;;;;5054793;28;20170;-68
2024/01/26 13:53:48;;;;;;;6.00;2.53;;;;;;;;;;5072758;28;20212;-67
2024/01/26 13:56:15;;;;;;;14.30;2.67;;;;;;;;;;5055225;28;20170;-65
2024/01/26 13:58:41;;;;;;;15.90;4.33;;;;;;;;;;5072742;28;20215;-67
2024/01/26 14:01:07;;;;;;;15.17;4.60;;;;;;;;;;5073284;28;20174;-65
2024/01/26 14:03:34;;;;;;;13.13;6.57;;;;;;;;;;5072599;28;20209;-65
2024/01/26 14:06:00;;;;;;;7.33;3.13;;;;;;;;;;5073281;28;20197;-67
2024/01/26 14:08:26;;;;;;;6.90;3.20;;;;;;;;;;5054703;28;20182;-67
2024/01/26 14:10:52;;;;;;;10.77;3.50;;;;;;;;;;5072721;28;20232;-68
2024/01/26 14:13:18;;;;;;;12.50;3.97;;;;;;;;;;5073206;28;20194;-67
2024/01/26 14:15:44;;;;;;;8.13;3.30;;;;;;;;;;5073208;28;20185;-68
2024/01/26 14:18:10;;;;;;;10.53;3.20;;;;;;;;;;5072807;28;20174;-68
2024/01/26 14:20:36;;;;;;;10.73;2.70;;;;;;;;;;5072844;28;20248;-67
2024/01/26 14:23:03;;;;;;;6.10;2.17;;;;;;;;;;5054201;28;20223;-66
2024/01/26 14:25:29;;;;;;;10.13;2.70;;;;;;;;;;5072041;28;20296;-67